sensor_id;sensor_type;location;lat;lon;timestamp;temperature;humidity
12329;DHT22;6230;52.390;10.256;2022-09-06T00:00:25;24.50;47.80
12329;DHT22;6230;52.390;10.256;2022-09-06T00:02:51;24.50;47.80
12329;DHT22;6230;52.390;10.256;2022-09-06T00:05:16;24.50;48.00
12329;DHT22;6230;52.390;10.256;2022-09-06T00:07:42;24.40;48.00
12329;DHT22;6230;52.390;10.256;2022-09-06T00:10:08;24.40;48.10
12329;DHT22;6230;52.390;10.256;2022-09-06T00:12:34;24.30;48.20
12329;DHT22;6230;52.390;10.256;2022-09-06T00:15:00;24.30;48.30
12329;DHT22;6230;52.390;10.256;2022-09-06T00:17:26;24.20;48.40
12329;DHT22;6230;52.390;10.256;2022-09-06T00:19:51;24.20;48.50
12329;DHT22;6230;52.390;10.256;2022-09-06T00:22:17;24.10;48.50
12329;DHT22;6230;52.390;10.256;2022-09-06T00:24:43;24.10;48.60
12329;DHT22;6230;52.390;10.256;2022-09-06T00:27:09;24.10;48.70
12329;DHT22;6230;52.390;10.256;2022-09-06T00:29:34;24.00;48.70
12329;DHT22;6230;52.390;10.256;2022-09-06T00:32:00;24.00;48.80
12329;DHT22;6230;52.390;10.256;2022-09-06T00:34:27;24.00;49.50
12329;DHT22;6230;52.390;10.256;2022-09-06T00:36:53;23.90;48.90
12329;DHT22;6230;52.390;10.256;2022-09-06T00:39:19;23.90;48.90
12329;DHT22;6230;52.390;10.256;2022-09-06T00:41:44;23.90;49.00
12329;DHT22;6230;52.390;10.256;2022-09-06T00:44:10;23.90;49.00
12329;DHT22;6230;52.390;10.256;2022-09-06T00:46:38;23.90;49.10
12329;DHT22;6230;52.390;10.256;2022-09-06T00:49:08;23.80;49.00
12329;DHT22;6230;52.390;10.256;2022-09-06T00:51:35;23.80;49.10
12329;DHT22;6230;52.390;10.256;2022-09-06T00:54:06;23.80;49.10
12329;DHT22;6230;52.390;10.256;2022-09-06T00:56:39;23.80;49.10
12329;DHT22;6230;52.390;10.256;2022-09-06T00:59:06;23.80;49.00
12329;DHT22;6230;52.390;10.256;2022-09-06T01:01:32;23.80;49.00
12329;DHT22;6230;52.390;10.256;2022-09-06T01:03:58;23.80;49.10
12329;DHT22;6230;52.390;10.256;2022-09-06T01:07:12;23.80;49.50
12329;DHT22;6230;52.390;10.256;2022-09-06T01:12:43;23.70;49.20
12329;DHT22;6230;52.390;10.256;2022-09-06T01:18:13;23.70;49.20
12329;DHT22;6230;52.390;10.256;2022-09-06T01:31:56;23.50;49.40
12329;DHT22;6230;52.390;10.256;2022-09-06T01:34:32;23.40;49.50
12329;DHT22;6230;52.390;10.256;2022-09-06T01:37:08;23.40;49.50
12329;DHT22;6230;52.390;10.256;2022-09-06T01:39:35;23.40;49.60
12329;DHT22;6230;52.390;10.256;2022-09-06T01:42:22;23.40;49.50
12329;DHT22;6230;52.390;10.256;2022-09-06T01:48:03;23.40;49.30
12329;DHT22;6230;52.390;10.256;2022-09-06T01:59:07;23.30;49.40
12329;DHT22;6230;52.390;10.256;2022-09-06T02:07:21;23.20;49.40
12329;DHT22;6230;52.390;10.256;2022-09-06T02:10:24;23.20;49.40
12329;DHT22;6230;52.390;10.256;2022-09-06T02:12:44;23.20;49.50
12329;DHT22;6230;52.390;10.256;2022-09-06T02:15:36;23.10;49.50
12329;DHT22;6230;52.390;10.256;2022-09-06T02:18:08;23.10;49.50
12329;DHT22;6230;52.390;10.256;2022-09-06T02:20:40;23.10;49.40
12329;DHT22;6230;52.390;10.256;2022-09-06T02:23:07;23.10;49.30
12329;DHT22;6230;52.390;10.256;2022-09-06T02:26:02;23.10;50.00
12329;DHT22;6230;52.390;10.256;2022-09-06T02:28:25;23.10;49.40
12329;DHT22;6230;52.390;10.256;2022-09-06T02:30:57;23.10;49.30
12329;DHT22;6230;52.390;10.256;2022-09-06T02:33:26;23.10;49.30
12329;DHT22;6230;52.390;10.256;2022-09-06T02:35:54;23.10;49.30
12329;DHT22;6230;52.390;10.256;2022-09-06T02:38:21;23.00;49.30
12329;DHT22;6230;52.390;10.256;2022-09-06T02:40:48;23.00;49.30
12329;DHT22;6230;52.390;10.256;2022-09-06T02:43:14;23.00;49.30
12329;DHT22;6230;52.390;10.256;2022-09-06T02:45:40;23.00;49.20
12329;DHT22;6230;52.390;10.256;2022-09-06T02:48:05;23.00;49.20
12329;DHT22;6230;52.390;10.256;2022-09-06T02:50:31;23.00;49.20
12329;DHT22;6230;52.390;10.256;2022-09-06T02:53:09;22.90;49.20
12329;DHT22;6230;52.390;10.256;2022-09-06T02:55:35;22.90;49.90
12329;DHT22;6230;52.390;10.256;2022-09-06T02:58:02;22.90;49.20
12329;DHT22;6230;52.390;10.256;2022-09-06T03:00:28;22.90;49.20
12329;DHT22;6230;52.390;10.256;2022-09-06T03:02:54;22.90;49.20
12329;DHT22;6230;52.390;10.256;2022-09-06T03:05:21;22.80;49.20
12329;DHT22;6230;52.390;10.256;2022-09-06T03:07:47;22.80;49.30
12329;DHT22;6230;52.390;10.256;2022-09-06T03:10:13;22.80;49.20
12329;DHT22;6230;52.390;10.256;2022-09-06T03:12:41;22.80;49.20
12329;DHT22;6230;52.390;10.256;2022-09-06T03:15:07;22.80;49.20
12329;DHT22;6230;52.390;10.256;2022-09-06T03:17:33;22.70;49.10
12329;DHT22;6230;52.390;10.256;2022-09-06T03:19:58;22.80;49.20
12329;DHT22;6230;52.390;10.256;2022-09-06T03:22:24;22.80;49.10
12329;DHT22;6230;52.390;10.256;2022-09-06T03:24:49;22.70;49.00
12329;DHT22;6230;52.390;10.256;2022-09-06T03:27:15;22.70;49.00
12329;DHT22;6230;52.390;10.256;2022-09-06T03:29:40;22.70;49.00
12329;DHT22;6230;52.390;10.256;2022-09-06T03:32:06;22.60;49.10
12329;DHT22;6230;52.390;10.256;2022-09-06T03:34:31;22.60;49.10
12329;DHT22;6230;52.390;10.256;2022-09-06T03:36:57;22.60;49.00
12329;DHT22;6230;52.390;10.256;2022-09-06T03:39:23;22.60;49.00
12329;DHT22;6230;52.390;10.256;2022-09-06T03:41:48;22.60;49.10
12329;DHT22;6230;52.390;10.256;2022-09-06T03:44:14;22.50;49.10
12329;DHT22;6230;52.390;10.256;2022-09-06T03:46:39;22.50;49.10
12329;DHT22;6230;52.390;10.256;2022-09-06T03:49:05;22.50;49.00
12329;DHT22;6230;52.390;10.256;2022-09-06T03:51:32;22.50;49.00
12329;DHT22;6230;52.390;10.256;2022-09-06T03:53:57;22.50;48.90
12329;DHT22;6230;52.390;10.256;2022-09-06T03:56:23;22.50;48.90
12329;DHT22;6230;52.390;10.256;2022-09-06T03:58:49;22.40;48.90
12329;DHT22;6230;52.390;10.256;2022-09-06T04:01:14;22.40;49.00
12329;DHT22;6230;52.390;10.256;2022-09-06T04:03:40;22.40;49.00
12329;DHT22;6230;52.390;10.256;2022-09-06T04:06:06;22.30;48.90
12329;DHT22;6230;52.390;10.256;2022-09-06T04:08:32;22.30;49.00
12329;DHT22;6230;52.390;10.256;2022-09-06T04:10:58;22.20;48.90
12329;DHT22;6230;52.390;10.256;2022-09-06T04:13:25;22.20;48.90
12329;DHT22;6230;52.390;10.256;2022-09-06T04:15:51;22.20;48.90
12329;DHT22;6230;52.390;10.256;2022-09-06T04:18:18;22.20;48.80
12329;DHT22;6230;52.390;10.256;2022-09-06T04:20:47;22.20;48.80
12329;DHT22;6230;52.390;10.256;2022-09-06T04:23:13;22.20;48.80
12329;DHT22;6230;52.390;10.256;2022-09-06T04:25:39;22.20;48.80
12329;DHT22;6230;52.390;10.256;2022-09-06T04:28:04;22.20;48.80
12329;DHT22;6230;52.390;10.256;2022-09-06T04:30:30;22.20;48.80
12329;DHT22;6230;52.390;10.256;2022-09-06T04:32:56;22.10;48.70
12329;DHT22;6230;52.390;10.256;2022-09-06T04:35:21;22.10;48.80
12329;DHT22;6230;52.390;10.256;2022-09-06T04:37:47;22.10;48.80
12329;DHT22;6230;52.390;10.256;2022-09-06T04:40:13;22.10;48.70
12329;DHT22;6230;52.390;10.256;2022-09-06T04:42:38;22.10;48.60
12329;DHT22;6230;52.390;10.256;2022-09-06T04:45:04;22.00;48.60
12329;DHT22;6230;52.390;10.256;2022-09-06T04:47:30;21.90;48.60
12329;DHT22;6230;52.390;10.256;2022-09-06T04:49:56;21.90;48.70
12329;DHT22;6230;52.390;10.256;2022-09-06T04:52:21;21.80;48.80
12329;DHT22;6230;52.390;10.256;2022-09-06T04:54:47;21.80;48.80
12329;DHT22;6230;52.390;10.256;2022-09-06T04:57:13;21.80;48.80
12329;DHT22;6230;52.390;10.256;2022-09-06T04:59:38;21.70;48.90
12329;DHT22;6230;52.390;10.256;2022-09-06T05:02:04;21.70;48.90
12329;DHT22;6230;52.390;10.256;2022-09-06T05:04:29;21.70;49.10
12329;DHT22;6230;52.390;10.256;2022-09-06T05:06:59;21.60;49.10
12329;DHT22;6230;52.390;10.256;2022-09-06T05:09:26;21.60;49.30
12329;DHT22;6230;52.390;10.256;2022-09-06T05:11:51;21.60;49.30
12329;DHT22;6230;52.390;10.256;2022-09-06T05:14:17;21.60;49.20
12329;DHT22;6230;52.390;10.256;2022-09-06T05:16:42;21.60;49.20
12329;DHT22;6230;52.390;10.256;2022-09-06T05:19:09;21.60;49.20
12329;DHT22;6230;52.390;10.256;2022-09-06T05:21:35;21.70;49.10
12329;DHT22;6230;52.390;10.256;2022-09-06T05:24:00;21.70;49.10
12329;DHT22;6230;52.390;10.256;2022-09-06T05:26:26;21.70;49.00
12329;DHT22;6230;52.390;10.256;2022-09-06T05:28:52;21.70;49.00
12329;DHT22;6230;52.390;10.256;2022-09-06T05:31:28;21.70;48.90
12329;DHT22;6230;52.390;10.256;2022-09-06T05:33:55;21.70;49.00
12329;DHT22;6230;52.390;10.256;2022-09-06T05:36:22;21.70;48.90
12329;DHT22;6230;52.390;10.256;2022-09-06T05:38:53;21.60;49.00
12329;DHT22;6230;52.390;10.256;2022-09-06T05:41:18;21.60;49.00
12329;DHT22;6230;52.390;10.256;2022-09-06T05:43:45;21.50;49.10
12329;DHT22;6230;52.390;10.256;2022-09-06T05:46:11;21.50;49.20
12329;DHT22;6230;52.390;10.256;2022-09-06T05:48:37;21.50;49.20
12329;DHT22;6230;52.390;10.256;2022-09-06T05:51:08;21.50;49.20
12329;DHT22;6230;52.390;10.256;2022-09-06T05:53:41;21.50;49.20
12329;DHT22;6230;52.390;10.256;2022-09-06T05:56:08;21.50;49.20
12329;DHT22;6230;52.390;10.256;2022-09-06T05:58:34;21.40;49.10
12329;DHT22;6230;52.390;10.256;2022-09-06T06:03:29;21.40;49.20
12329;DHT22;6230;52.390;10.256;2022-09-06T06:05:54;21.40;49.20
12329;DHT22;6230;52.390;10.256;2022-09-06T06:08:20;21.40;49.20
12329;DHT22;6230;52.390;10.256;2022-09-06T06:10:45;21.40;49.10
12329;DHT22;6230;52.390;10.256;2022-09-06T06:13:11;21.40;49.10
12329;DHT22;6230;52.390;10.256;2022-09-06T06:15:36;21.40;49.10
12329;DHT22;6230;52.390;10.256;2022-09-06T06:18:02;21.40;49.10
12329;DHT22;6230;52.390;10.256;2022-09-06T06:20:27;21.30;49.20
12329;DHT22;6230;52.390;10.256;2022-09-06T06:22:53;21.40;49.20
12329;DHT22;6230;52.390;10.256;2022-09-06T06:25:19;21.30;49.20
12329;DHT22;6230;52.390;10.256;2022-09-06T06:27:47;21.30;49.20
12329;DHT22;6230;52.390;10.256;2022-09-06T06:30:13;21.30;49.20
12329;DHT22;6230;52.390;10.256;2022-09-06T06:32:39;21.30;49.30
12329;DHT22;6230;52.390;10.256;2022-09-06T06:35:05;21.40;49.20
12329;DHT22;6230;52.390;10.256;2022-09-06T06:37:32;21.30;49.20
12329;DHT22;6230;52.390;10.256;2022-09-06T06:39:57;21.30;49.30
12329;DHT22;6230;52.390;10.256;2022-09-06T06:42:23;21.30;49.30
12329;DHT22;6230;52.390;10.256;2022-09-06T06:44:48;21.30;49.30
12329;DHT22;6230;52.390;10.256;2022-09-06T06:47:17;21.30;49.20
12329;DHT22;6230;52.390;10.256;2022-09-06T06:49:43;21.20;49.30
12329;DHT22;6230;52.390;10.256;2022-09-06T06:52:08;21.20;49.30
12329;DHT22;6230;52.390;10.256;2022-09-06T06:54:34;21.20;49.40
12329;DHT22;6230;52.390;10.256;2022-09-06T06:57:02;21.20;49.40
12329;DHT22;6230;52.390;10.256;2022-09-06T06:59:29;21.20;49.50
12329;DHT22;6230;52.390;10.256;2022-09-06T07:01:55;21.20;49.50
12329;DHT22;6230;52.390;10.256;2022-09-06T07:04:20;21.20;50.10
12329;DHT22;6230;52.390;10.256;2022-09-06T07:06:51;21.20;49.50
12329;DHT22;6230;52.390;10.256;2022-09-06T07:09:18;21.20;49.50
12329;DHT22;6230;52.390;10.256;2022-09-06T07:11:45;21.30;49.40
12329;DHT22;6230;52.390;10.256;2022-09-06T07:14:11;21.40;49.30
12329;DHT22;6230;52.390;10.256;2022-09-06T07:16:37;21.40;49.20
12329;DHT22;6230;52.390;10.256;2022-09-06T07:19:02;21.40;49.70
12329;DHT22;6230;52.390;10.256;2022-09-06T07:21:28;21.40;49.10
12329;DHT22;6230;52.390;10.256;2022-09-06T07:23:55;21.30;49.10
12329;DHT22;6230;52.390;10.256;2022-09-06T07:26:23;21.30;49.10
12329;DHT22;6230;52.390;10.256;2022-09-06T07:28:53;21.30;49.20
12329;DHT22;6230;52.390;10.256;2022-09-06T07:31:19;21.30;49.20
12329;DHT22;6230;52.390;10.256;2022-09-06T07:33:45;21.30;49.30
12329;DHT22;6230;52.390;10.256;2022-09-06T07:36:11;21.30;49.20
12329;DHT22;6230;52.390;10.256;2022-09-06T07:38:36;21.40;49.00
12329;DHT22;6230;52.390;10.256;2022-09-06T07:41:07;21.50;49.00
12329;DHT22;6230;52.390;10.256;2022-09-06T07:43:33;21.60;48.90
12329;DHT22;6230;52.390;10.256;2022-09-06T07:46:02;21.60;48.80
12329;DHT22;6230;52.390;10.256;2022-09-06T07:48:32;21.80;48.60
12329;DHT22;6230;52.390;10.256;2022-09-06T07:53:28;21.90;48.40
12329;DHT22;6230;52.390;10.256;2022-09-06T07:55:54;21.90;48.40
12329;DHT22;6230;52.390;10.256;2022-09-06T07:58:19;22.00;48.30
12329;DHT22;6230;52.390;10.256;2022-09-06T08:00:45;22.00;48.20
12329;DHT22;6230;52.390;10.256;2022-09-06T08:03:10;22.10;48.20
12329;DHT22;6230;52.390;10.256;2022-09-06T08:05:36;22.10;48.10
12329;DHT22;6230;52.390;10.256;2022-09-06T08:08:02;22.10;48.10
12329;DHT22;6230;52.390;10.256;2022-09-06T08:10:27;22.20;48.00
12329;DHT22;6230;52.390;10.256;2022-09-06T08:12:53;22.20;48.00
12329;DHT22;6230;52.390;10.256;2022-09-06T08:15:19;22.20;47.90
12329;DHT22;6230;52.390;10.256;2022-09-06T08:17:49;22.20;47.90
12329;DHT22;6230;52.390;10.256;2022-09-06T08:20:15;22.20;48.00
12329;DHT22;6230;52.390;10.256;2022-09-06T08:22:41;22.20;48.10
12329;DHT22;6230;52.390;10.256;2022-09-06T08:25:07;22.20;48.40
12329;DHT22;6230;52.390;10.256;2022-09-06T08:27:33;22.30;48.70
12329;DHT22;6230;52.390;10.256;2022-09-06T08:29:58;22.20;48.90
12329;DHT22;6230;52.390;10.256;2022-09-06T08:32:24;22.20;49.10
12329;DHT22;6230;52.390;10.256;2022-09-06T08:34:51;22.20;49.30
12329;DHT22;6230;52.390;10.256;2022-09-06T08:37:16;22.20;49.80
12329;DHT22;6230;52.390;10.256;2022-09-06T08:39:42;22.20;50.00
12329;DHT22;6230;52.390;10.256;2022-09-06T08:42:08;22.20;50.10
12329;DHT22;6230;52.390;10.256;2022-09-06T08:44:39;22.20;50.10
12329;DHT22;6230;52.390;10.256;2022-09-06T08:47:08;22.10;50.50
12329;DHT22;6230;52.390;10.256;2022-09-06T08:52:24;22.10;51.70
12329;DHT22;6230;52.390;10.256;2022-09-06T09:00:20;22.00;52.30
12329;DHT22;6230;52.390;10.256;2022-09-06T09:03:11;22.00;52.00
12329;DHT22;6230;52.390;10.256;2022-09-06T09:05:39;21.90;52.10
12329;DHT22;6230;52.390;10.256;2022-09-06T09:08:30;21.80;52.00
12329;DHT22;6230;52.390;10.256;2022-09-06T09:11:05;21.80;52.20
12329;DHT22;6230;52.390;10.256;2022-09-06T09:13:37;21.70;52.00
12329;DHT22;6230;52.390;10.256;2022-09-06T09:16:05;21.60;52.10
12329;DHT22;6230;52.390;10.256;2022-09-06T09:18:33;21.50;52.30
12329;DHT22;6230;52.390;10.256;2022-09-06T09:21:01;21.50;52.60
12329;DHT22;6230;52.390;10.256;2022-09-06T09:23:28;21.50;52.60
12329;DHT22;6230;52.390;10.256;2022-09-06T09:25:59;21.60;52.90
12329;DHT22;6230;52.390;10.256;2022-09-06T09:28:26;21.70;53.00
12329;DHT22;6230;52.390;10.256;2022-09-06T09:30:54;21.70;52.80
12329;DHT22;6230;52.390;10.256;2022-09-06T09:33:27;21.90;53.00
12329;DHT22;6230;52.390;10.256;2022-09-06T09:35:55;21.90;53.00
12329;DHT22;6230;52.390;10.256;2022-09-06T09:38:27;22.00;53.00
12329;DHT22;6230;52.390;10.256;2022-09-06T09:41:05;22.20;52.80
12329;DHT22;6230;52.390;10.256;2022-09-06T09:43:34;22.30;52.50
12329;DHT22;6230;52.390;10.256;2022-09-06T09:46:28;22.40;52.20
12329;DHT22;6230;52.390;10.256;2022-09-06T09:51:42;22.50;51.90
12329;DHT22;6230;52.390;10.256;2022-09-06T09:54:10;22.60;51.90
12329;DHT22;6230;52.390;10.256;2022-09-06T09:56:46;22.70;51.70
12329;DHT22;6230;52.390;10.256;2022-09-06T10:01:56;23.10;50.90
12329;DHT22;6230;52.390;10.256;2022-09-06T10:04:34;23.10;50.50
12329;DHT22;6230;52.390;10.256;2022-09-06T10:07:20;23.20;50.20
12329;DHT22;6230;52.390;10.256;2022-09-06T10:09:59;23.30;49.90
12329;DHT22;6230;52.390;10.256;2022-09-06T10:12:33;23.30;49.80
12329;DHT22;6230;52.390;10.256;2022-09-06T10:15:00;23.30;49.40
12329;DHT22;6230;52.390;10.256;2022-09-06T10:17:30;23.30;49.60
12329;DHT22;6230;52.390;10.256;2022-09-06T10:19:56;23.40;49.50
12329;DHT22;6230;52.390;10.256;2022-09-06T10:31:01;23.90;48.50
12329;DHT22;6230;52.390;10.256;2022-09-06T10:33:55;23.90;48.00
12329;DHT22;6230;52.390;10.256;2022-09-06T10:36:49;24.00;48.00
12329;DHT22;6230;52.390;10.256;2022-09-06T10:39:48;24.10;47.70
12329;DHT22;6230;52.390;10.256;2022-09-06T10:47:50;24.50;46.60
12329;DHT22;6230;52.390;10.256;2022-09-06T10:50:19;24.60;46.40
12329;DHT22;6230;52.390;10.256;2022-09-06T10:52:47;24.60;46.30
12329;DHT22;6230;52.390;10.256;2022-09-06T10:55:15;24.70;45.80
12329;DHT22;6230;52.390;10.256;2022-09-06T10:57:51;24.70;45.50
12329;DHT22;6230;52.390;10.256;2022-09-06T11:00:18;24.60;45.50
12329;DHT22;6230;52.390;10.256;2022-09-06T11:05:30;24.50;45.30
12329;DHT22;6230;52.390;10.256;2022-09-06T11:08:00;24.50;45.50
12329;DHT22;6230;52.390;10.256;2022-09-06T11:10:35;24.50;45.40
12329;DHT22;6230;52.390;10.256;2022-09-06T11:16:40;24.50;45.40
12329;DHT22;6230;52.390;10.256;2022-09-06T11:19:03;24.40;45.30
12329;DHT22;6230;52.390;10.256;2022-09-06T11:27:11;24.40;45.50
12329;DHT22;6230;52.390;10.256;2022-09-06T11:29:40;24.50;45.40
12329;DHT22;6230;52.390;10.256;2022-09-06T11:34:54;24.50;45.10
12329;DHT22;6230;52.390;10.256;2022-09-06T11:37:30;24.50;45.30
12329;DHT22;6230;52.390;10.256;2022-09-06T11:40:16;24.60;45.30
12329;DHT22;6230;52.390;10.256;2022-09-06T11:47:43;24.70;45.10
12329;DHT22;6230;52.390;10.256;2022-09-06T11:58:21;25.10;44.90
12329;DHT22;6230;52.390;10.256;2022-09-06T12:06:19;25.60;44.20
12329;DHT22;6230;52.390;10.256;2022-09-06T12:08:49;25.80;43.90
12329;DHT22;6230;52.390;10.256;2022-09-06T12:14:30;26.20;43.50
12329;DHT22;6230;52.390;10.256;2022-09-06T12:20:03;26.50;42.70
12329;DHT22;6230;52.390;10.256;2022-09-06T12:25:18;26.90;42.50
12329;DHT22;6230;52.390;10.256;2022-09-06T12:27:54;27.20;41.80
12329;DHT22;6230;52.390;10.256;2022-09-06T12:30:43;27.30;41.60
12329;DHT22;6230;52.390;10.256;2022-09-06T12:33:31;27.50;41.20
12329;DHT22;6230;52.390;10.256;2022-09-06T12:36:31;27.60;41.00
12329;DHT22;6230;52.390;10.256;2022-09-06T12:39:07;27.80;40.90
12329;DHT22;6230;52.390;10.256;2022-09-06T12:41:39;27.90;40.90
12329;DHT22;6230;52.390;10.256;2022-09-06T12:44:06;28.10;40.60
12329;DHT22;6230;52.390;10.256;2022-09-06T12:46:33;28.20;40.30
12329;DHT22;6230;52.390;10.256;2022-09-06T12:49:03;28.30;40.10
12329;DHT22;6230;52.390;10.256;2022-09-06T12:51:30;28.30;39.90
12329;DHT22;6230;52.390;10.256;2022-09-06T12:53:58;28.40;39.80
12329;DHT22;6230;52.390;10.256;2022-09-06T12:56:26;28.50;39.60
12329;DHT22;6230;52.390;10.256;2022-09-06T12:58:52;28.50;39.60
12329;DHT22;6230;52.390;10.256;2022-09-06T13:01:34;28.70;39.60
12329;DHT22;6230;52.390;10.256;2022-09-06T13:04:22;28.90;39.40
12329;DHT22;6230;52.390;10.256;2022-09-06T13:06:50;29.10;39.00
12329;DHT22;6230;52.390;10.256;2022-09-06T13:09:17;29.20;38.80
12329;DHT22;6230;52.390;10.256;2022-09-06T13:11:47;29.20;38.50
12329;DHT22;6230;52.390;10.256;2022-09-06T13:14:24;29.20;38.10
12329;DHT22;6230;52.390;10.256;2022-09-06T13:16:52;29.10;38.20
12329;DHT22;6230;52.390;10.256;2022-09-06T13:19:38;29.20;38.30
12329;DHT22;6230;52.390;10.256;2022-09-06T13:22:06;29.40;38.10
12329;DHT22;6230;52.390;10.256;2022-09-06T13:30:07;29.60;37.60
12329;DHT22;6230;52.390;10.256;2022-09-06T13:32:45;29.70;37.80
12329;DHT22;6230;52.390;10.256;2022-09-06T13:35:28;29.70;37.60
12329;DHT22;6230;52.390;10.256;2022-09-06T13:38:30;29.70;37.50
12329;DHT22;6230;52.390;10.256;2022-09-06T13:40:55;29.80;37.50
12329;DHT22;6230;52.390;10.256;2022-09-06T13:43:22;29.80;37.60
12329;DHT22;6230;52.390;10.256;2022-09-06T13:45:48;29.90;37.50
12329;DHT22;6230;52.390;10.256;2022-09-06T13:48:22;30.00;37.40
12329;DHT22;6230;52.390;10.256;2022-09-06T13:50:47;30.10;37.30
12329;DHT22;6230;52.390;10.256;2022-09-06T13:53:18;30.10;37.20
12329;DHT22;6230;52.390;10.256;2022-09-06T13:55:44;30.10;36.90
12329;DHT22;6230;52.390;10.256;2022-09-06T13:58:09;30.10;36.90
12329;DHT22;6230;52.390;10.256;2022-09-06T14:00:35;30.10;36.90
12329;DHT22;6230;52.390;10.256;2022-09-06T14:03:02;30.10;36.90
12329;DHT22;6230;52.390;10.256;2022-09-06T14:05:27;30.10;37.00
12329;DHT22;6230;52.390;10.256;2022-09-06T14:07:53;30.10;36.90
12329;DHT22;6230;52.390;10.256;2022-09-06T14:10:18;30.10;36.90
12329;DHT22;6230;52.390;10.256;2022-09-06T14:12:46;30.10;36.90
12329;DHT22;6230;52.390;10.256;2022-09-06T14:15:11;30.10;37.00
12329;DHT22;6230;52.390;10.256;2022-09-06T14:17:37;30.10;37.00
12329;DHT22;6230;52.390;10.256;2022-09-06T14:20:03;30.10;37.00
12329;DHT22;6230;52.390;10.256;2022-09-06T14:22:29;30.10;37.10
12329;DHT22;6230;52.390;10.256;2022-09-06T14:24:55;30.00;37.00
12329;DHT22;6230;52.390;10.256;2022-09-06T14:27:20;29.90;37.00
12329;DHT22;6230;52.390;10.256;2022-09-06T14:29:46;29.90;37.20
12329;DHT22;6230;52.390;10.256;2022-09-06T14:32:12;29.80;37.40
12329;DHT22;6230;52.390;10.256;2022-09-06T14:34:38;29.70;37.50
12329;DHT22;6230;52.390;10.256;2022-09-06T14:37:04;29.60;37.60
12329;DHT22;6230;52.390;10.256;2022-09-06T14:39:29;29.50;37.80
12329;DHT22;6230;52.390;10.256;2022-09-06T14:41:55;29.40;37.90
12329;DHT22;6230;52.390;10.256;2022-09-06T14:44:20;29.30;38.10
12329;DHT22;6230;52.390;10.256;2022-09-06T14:46:46;29.30;38.20
12329;DHT22;6230;52.390;10.256;2022-09-06T14:49:13;29.20;38.30
12329;DHT22;6230;52.390;10.256;2022-09-06T14:51:39;29.20;38.50
12329;DHT22;6230;52.390;10.256;2022-09-06T14:54:10;29.20;38.60
12329;DHT22;6230;52.390;10.256;2022-09-06T14:56:37;29.20;38.60
12329;DHT22;6230;52.390;10.256;2022-09-06T14:59:04;29.20;38.70
12329;DHT22;6230;52.390;10.256;2022-09-06T15:01:31;29.20;38.70
12329;DHT22;6230;52.390;10.256;2022-09-06T15:03:59;29.20;38.80
12329;DHT22;6230;52.390;10.256;2022-09-06T15:06:27;29.20;38.80
12329;DHT22;6230;52.390;10.256;2022-09-06T15:08:53;29.10;38.90
12329;DHT22;6230;52.390;10.256;2022-09-06T15:11:32;29.10;39.00
12329;DHT22;6230;52.390;10.256;2022-09-06T15:14:02;29.10;39.00
12329;DHT22;6230;52.390;10.256;2022-09-06T15:16:28;29.00;39.20
12329;DHT22;6230;52.390;10.256;2022-09-06T15:18:54;29.00;39.30
12329;DHT22;6230;52.390;10.256;2022-09-06T15:21:20;29.00;39.30
12329;DHT22;6230;52.390;10.256;2022-09-06T15:23:46;28.90;39.30
12329;DHT22;6230;52.390;10.256;2022-09-06T15:26:12;28.90;39.40
12329;DHT22;6230;52.390;10.256;2022-09-06T15:28:39;28.80;39.50
12329;DHT22;6230;52.390;10.256;2022-09-06T15:31:06;28.80;39.60
12329;DHT22;6230;52.390;10.256;2022-09-06T15:33:33;28.80;39.60
12329;DHT22;6230;52.390;10.256;2022-09-06T15:35:59;28.80;39.60
12329;DHT22;6230;52.390;10.256;2022-09-06T15:38:30;28.80;39.70
12329;DHT22;6230;52.390;10.256;2022-09-06T15:41:06;28.80;39.80
12329;DHT22;6230;52.390;10.256;2022-09-06T15:43:33;28.80;39.80
12329;DHT22;6230;52.390;10.256;2022-09-06T15:45:59;28.70;40.40
12329;DHT22;6230;52.390;10.256;2022-09-06T15:48:27;28.70;39.90
12329;DHT22;6230;52.390;10.256;2022-09-06T15:50:54;28.70;39.80
12329;DHT22;6230;52.390;10.256;2022-09-06T15:53:19;28.70;39.80
12329;DHT22;6230;52.390;10.256;2022-09-06T15:55:45;28.70;39.90
12329;DHT22;6230;52.390;10.256;2022-09-06T15:58:20;28.60;39.90
12329;DHT22;6230;52.390;10.256;2022-09-06T16:00:57;28.60;40.00
12329;DHT22;6230;52.390;10.256;2022-09-06T16:03:23;28.50;40.00
12329;DHT22;6230;52.390;10.256;2022-09-06T16:05:48;28.50;40.10
12329;DHT22;6230;52.390;10.256;2022-09-06T16:08:14;28.50;40.10
12329;DHT22;6230;52.390;10.256;2022-09-06T16:10:40;28.50;40.20
12329;DHT22;6230;52.390;10.256;2022-09-06T16:13:05;28.40;40.20
12329;DHT22;6230;52.390;10.256;2022-09-06T16:15:31;28.40;40.20
12329;DHT22;6230;52.390;10.256;2022-09-06T16:17:56;28.40;40.20
12329;DHT22;6230;52.390;10.256;2022-09-06T16:20:22;28.40;40.20
12329;DHT22;6230;52.390;10.256;2022-09-06T16:22:48;28.30;40.30
12329;DHT22;6230;52.390;10.256;2022-09-06T16:25:14;28.30;40.30
12329;DHT22;6230;52.390;10.256;2022-09-06T16:27:39;28.20;40.30
12329;DHT22;6230;52.390;10.256;2022-09-06T16:30:05;28.20;40.40
12329;DHT22;6230;52.390;10.256;2022-09-06T16:32:31;28.10;40.40
12329;DHT22;6230;52.390;10.256;2022-09-06T16:34:57;28.10;40.50
12329;DHT22;6230;52.390;10.256;2022-09-06T16:37:22;28.00;40.50
12329;DHT22;6230;52.390;10.256;2022-09-06T16:39:48;28.00;40.60
12329;DHT22;6230;52.390;10.256;2022-09-06T16:42:14;28.00;40.60
12329;DHT22;6230;52.390;10.256;2022-09-06T16:44:40;27.90;40.70
12329;DHT22;6230;52.390;10.256;2022-09-06T16:47:05;27.90;40.70
12329;DHT22;6230;52.390;10.256;2022-09-06T16:49:31;27.80;40.70
12329;DHT22;6230;52.390;10.256;2022-09-06T16:51:57;27.80;40.80
12329;DHT22;6230;52.390;10.256;2022-09-06T16:54:22;27.80;40.90
12329;DHT22;6230;52.390;10.256;2022-09-06T16:56:48;27.70;40.90
12329;DHT22;6230;52.390;10.256;2022-09-06T16:59:13;27.70;41.00
12329;DHT22;6230;52.390;10.256;2022-09-06T17:01:41;27.70;41.10
12329;DHT22;6230;52.390;10.256;2022-09-06T17:04:08;27.60;41.10
12329;DHT22;6230;52.390;10.256;2022-09-06T17:06:34;27.60;41.20
12329;DHT22;6230;52.390;10.256;2022-09-06T17:09:06;27.50;41.30
12329;DHT22;6230;52.390;10.256;2022-09-06T17:11:32;27.50;41.40
12329;DHT22;6230;52.390;10.256;2022-09-06T17:13:58;27.40;41.50
12329;DHT22;6230;52.390;10.256;2022-09-06T17:16:24;27.40;41.50
12329;DHT22;6230;52.390;10.256;2022-09-06T17:19:09;27.40;41.60
12329;DHT22;6230;52.390;10.256;2022-09-06T17:21:35;27.30;41.70
12329;DHT22;6230;52.390;10.256;2022-09-06T17:24:01;27.20;41.70
12329;DHT22;6230;52.390;10.256;2022-09-06T17:26:29;27.20;41.80
12329;DHT22;6230;52.390;10.256;2022-09-06T17:28:55;27.20;42.00
12329;DHT22;6230;52.390;10.256;2022-09-06T17:31:22;27.10;42.00
12329;DHT22;6230;52.390;10.256;2022-09-06T17:33:48;27.10;42.70